sensor_id;sensor_type;location;lat;lon;timestamp;pressure;altitude;pressure_sealevel;temperature;humidity
48622;BME280;34421;48.944;9.460;2024-02-28T00:01:59;98451.19;;;9.50;70.79
48622;BME280;34421;48.944;9.460;2024-02-28T00:04:25;98460.19;;;9.56;69.96
48622;BME280;34421;48.944;9.460;2024-02-28T00:06:50;98458.97;;;9.58;70.30
48622;BME280;34421;48.944;9.460;2024-02-28T00:09:15;98460.59;;;9.59;70.79
48622;BME280;34421;48.944;9.460;2024-02-28T00:11:45;98461.41;;;9.60;69.83
48622;BME280;34421;48.944;9.460;2024-02-28T00:14:11;98461.81;;;9.57;70.48
48622;BME280;34421;48.944;9.460;2024-02-28T00:16:40;98461.00;;;9.56;70.33
48622;BME280;34421;48.944;9.460;2024-02-28T00:19:06;98466.56;;;9.55;70.23
48622;BME280;34421;48.944;9.460;2024-02-28T00:21:31;98470.84;;;9.56;70.04
48622;BME280;34421;48.944;9.460;2024-02-28T00:23:57;98470.84;;;9.56;70.22
48622;BME280;34421;48.944;9.460;2024-02-28T00:26:22;98465.31;;;9.57;70.44
48622;BME280;34421;48.944;9.460;2024-02-28T00:28:47;98474.13;;;9.58;70.63
48622;BME280;34421;48.944;9.460;2024-02-28T00:31:12;98471.25;;;9.59;70.25
48622;BME280;34421;48.944;9.460;2024-02-28T00:33:38;98470.63;;;9.57;70.72
48622;BME280;34421;48.944;9.460;2024-02-28T00:36:03;98466.13;;;9.45;71.03
48622;BME280;34421;48.944;9.460;2024-02-28T00:38:29;98464.69;;;9.42;70.58
48622;BME280;34421;48.944;9.460;2024-02-28T00:40:54;98472.06;;;9.47;71.17
48622;BME280;34421;48.944;9.460;2024-02-28T00:43:19;98470.84;;;9.49;70.57
48622;BME280;34421;48.944;9.460;2024-02-28T00:45:45;98467.97;;;9.51;71.14
48622;BME280;34421;48.944;9.460;2024-02-28T00:48:10;98473.09;;;9.52;70.42
48622;BME280;34421;48.944;9.460;2024-02-28T00:50:35;98471.47;;;9.58;70.19
48622;BME280;34421;48.944;9.460;2024-02-28T00:53:01;98474.72;;;9.60;70.67
48622;BME280;34421;48.944;9.460;2024-02-28T00:55:28;98470.84;;;9.63;71.06
48622;BME280;34421;48.944;9.460;2024-02-28T00:57:53;98479.44;;;9.65;71.63
48622;BME280;34421;48.944;9.460;2024-02-28T01:00:18;98475.75;;;9.66;70.16
48622;BME280;34421;48.944;9.460;2024-02-28T01:02:44;98478.41;;;9.66;70.47
48622;BME280;34421;48.944;9.460;2024-02-28T01:05:09;98470.84;;;9.56;70.47
48622;BME280;34421;48.944;9.460;2024-02-28T01:07:34;98474.94;;;9.52;70.70
48622;BME280;34421;48.944;9.460;2024-02-28T01:10:00;98474.94;;;9.52;70.50
48622;BME280;34421;48.944;9.460;2024-02-28T01:12:25;98472.69;;;9.55;71.15
48622;BME280;34421;48.944;9.460;2024-02-28T01:14:50;98468.81;;;9.58;70.01
48622;BME280;34421;48.944;9.460;2024-02-28T01:17:16;98472.06;;;9.53;69.83
48622;BME280;34421;48.944;9.460;2024-02-28T01:19:41;98471.66;;;9.50;69.16
48622;BME280;34421;48.944;9.460;2024-02-28T01:22:06;98474.09;;;9.45;70.05
48622;BME280;34421;48.944;9.460;2024-02-28T01:24:33;98468.56;;;9.40;70.11
48622;BME280;34421;48.944;9.460;2024-02-28T01:26:59;98482.25;;;9.36;69.93
48622;BME280;34421;48.944;9.460;2024-02-28T01:29:25;98480.41;;;9.30;69.69
48622;BME280;34421;48.944;9.460;2024-02-28T01:31:50;98484.09;;;9.29;69.45
48622;BME280;34421;48.944;9.460;2024-02-28T01:34:15;98485.53;;;9.25;69.13
48622;BME280;34421;48.944;9.460;2024-02-28T01:36:40;98478.56;;;9.24;69.28
48622;BME280;34421;48.944;9.460;2024-02-28T01:39:06;98480.59;;;9.22;69.82
48622;BME280;34421;48.944;9.460;2024-02-28T01:41:31;98484.91;;;9.23;69.34
48622;BME280;34421;48.944;9.460;2024-02-28T01:43:56;98488.59;;;9.22;70.06
48622;BME280;34421;48.944;9.460;2024-02-28T01:46:28;98489.59;;;9.21;70.21
48622;BME280;34421;48.944;9.460;2024-02-28T01:48:55;98489.97;;;9.18;69.66
48622;BME280;34421;48.944;9.460;2024-02-28T01:51:22;98493.66;;;9.17;70.06
48622;BME280;34421;48.944;9.460;2024-02-28T01:53:50;98498.34;;;9.15;69.28
48622;BME280;34421;48.944;9.460;2024-02-28T01:56:16;98500.59;;;9.18;69.94
48622;BME280;34421;48.944;9.460;2024-02-28T01:58:45;98497.34;;;9.16;69.79
48622;BME280;34421;48.944;9.460;2024-02-28T02:01:13;98506.94;;;9.17;69.85
48622;BME280;34421;48.944;9.460;2024-02-28T02:03:38;98500.22;;;9.21;70.31
48622;BME280;34421;48.944;9.460;2024-02-28T02:06:04;98502.28;;;9.26;70.73
48622;BME280;34421;48.944;9.460;2024-02-28T02:08:30;98498.59;;;9.27;70.32
48622;BME280;34421;48.944;9.460;2024-02-28T02:10:55;98509.84;;;9.29;70.75
48622;BME280;34421;48.944;9.460;2024-02-28T02:13:21;98509.63;;;9.30;69.73
48622;BME280;34421;48.944;9.460;2024-02-28T02:15:47;98511.28;;;9.31;70.23
48622;BME280;34421;48.944;9.460;2024-02-28T02:18:12;98516.38;;;9.33;70.23
48622;BME280;34421;48.944;9.460;2024-02-28T02:20:43;98516.59;;;9.31;69.62
48622;BME280;34421;48.944;9.460;2024-02-28T02:23:09;98517.00;;;9.28;69.09
48622;BME280;34421;48.944;9.460;2024-02-28T02:25:34;98519.66;;;9.28;68.73
48622;BME280;34421;48.944;9.460;2024-02-28T02:28:08;98527.97;;;9.19;69.42
48622;BME280;34421;48.944;9.460;2024-02-28T02:30:33;98519.84;;;9.20;69.09
48622;BME280;34421;48.944;9.460;2024-02-28T02:32:58;98523.72;;;9.24;69.31
48622;BME280;34421;48.944;9.460;2024-02-28T02:35:23;98530.06;;;9.23;69.36
48622;BME280;34421;48.944;9.460;2024-02-28T02:37:49;98531.25;;;9.14;69.41
48622;BME280;34421;48.944;9.460;2024-02-28T02:40:15;98540.66;;;9.17;69.86
48622;BME280;34421;48.944;9.460;2024-02-28T02:42:40;98549.63;;;9.16;69.50
48622;BME280;34421;48.944;9.460;2024-02-28T02:45:06;98544.31;;;9.16;69.15
48622;BME280;34421;48.944;9.460;2024-02-28T02:47:31;98559.84;;;9.12;69.61
48622;BME280;34421;48.944;9.460;2024-02-28T02:49:56;98557.41;;;9.10;69.92
48622;BME280;34421;48.944;9.460;2024-02-28T02:52:22;98558.63;;;9.08;69.31
48622;BME280;34421;48.944;9.460;2024-02-28T02:54:47;98562.28;;;9.07;69.84
48622;BME280;34421;48.944;9.460;2024-02-28T02:57:12;98571.25;;;9.06;69.26
48622;BME280;34421;48.944;9.460;2024-02-28T02:59:37;98574.75;;;9.06;69.58
48622;BME280;34421;48.944;9.460;2024-02-28T03:02:03;98568.44;;;9.07;69.03
48622;BME280;34421;48.944;9.460;2024-02-28T03:04:29;98569.25;;;9.08;69.57
48622;BME280;34421;48.944;9.460;2024-02-28T03:06:54;98563.94;;;9.08;69.90
48622;BME280;34421;48.944;9.460;2024-02-28T03:09:19;98571.69;;;9.09;68.78
48622;BME280;34421;48.944;9.460;2024-02-28T03:11:45;98583.13;;;9.10;69.78
48622;BME280;34421;48.944;9.460;2024-02-28T03:14:10;98575.34;;;9.02;69.27
48622;BME280;34421;48.944;9.460;2024-02-28T03:16:35;98583.44;;;8.87;70.22
48622;BME280;34421;48.944;9.460;2024-02-28T03:19:02;98591.03;;;8.90;69.43
48622;BME280;34421;48.944;9.460;2024-02-28T03:21:28;98595.50;;;8.89;69.49
48622;BME280;34421;48.944;9.460;2024-02-28T03:23:53;98595.72;;;8.95;69.24
48622;BME280;34421;48.944;9.460;2024-02-28T03:26:18;98597.38;;;8.96;69.46
48622;BME280;34421;48.944;9.460;2024-02-28T03:28:44;98597.38;;;8.96;68.96
48622;BME280;34421;48.944;9.460;2024-02-28T03:31:09;98600.19;;;8.87;69.32
48622;BME280;34421;48.944;9.460;2024-02-28T03:33:34;98607.91;;;8.82;69.58
48622;BME280;34421;48.944;9.460;2024-02-28T03:36:00;98617.44;;;8.70;69.96
48622;BME280;34421;48.944;9.460;2024-02-28T03:38:26;98623.31;;;8.65;70.23
48622;BME280;34421;48.944;9.460;2024-02-28T03:40:51;98625.56;;;8.62;69.97
48622;BME280;34421;48.944;9.460;2024-02-28T03:43:16;98623.53;;;8.64;69.74
48622;BME280;34421;48.944;9.460;2024-02-28T03:45:41;98627.88;;;8.72;69.65
48622;BME280;34421;48.944;9.460;2024-02-28T03:48:07;98632.34;;;8.71;69.97
48622;BME280;34421;48.944;9.460;2024-02-28T03:50:32;98634.53;;;8.61;69.78
48622;BME280;34421;48.944;9.460;2024-02-28T03:52:58;98633.84;;;8.52;70.21
48622;BME280;34421;48.944;9.460;2024-02-28T03:55:23;98638.75;;;8.49;70.75
48622;BME280;34421;48.944;9.460;2024-02-28T03:57:48;98638.09;;;8.47;70.47
48622;BME280;34421;48.944;9.460;2024-02-28T04:00:17;98641.63;;;8.54;70.75
48622;BME280;34421;48.944;9.460;2024-02-28T04:02:42;98642.94;;;8.64;70.86
48622;BME280;34421;48.944;9.460;2024-02-28T04:05:08;98646.66;;;8.70;70.66
48622;BME280;34421;48.944;9.460;2024-02-28T04:07:33;98645.69;;;8.78;69.92
48622;BME280;34421;48.944;9.460;2024-02-28T04:09:58;98657.38;;;8.83;69.78
48622;BME280;34421;48.944;9.460;2024-02-28T04:12:24;98656.13;;;8.86;69.91
48622;BME280;34421;48.944;9.460;2024-02-28T04:14:49;98659.19;;;8.83;69.60
48622;BME280;34421;48.944;9.460;2024-02-28T04:17:14;98654.22;;;8.73;69.89
48622;BME280;34421;48.944;9.460;2024-02-28T04:19:40;98656.03;;;8.66;70.44
48622;BME280;34421;48.944;9.460;2024-02-28T04:22:05;98656.03;;;8.66;70.33
48622;BME280;34421;48.944;9.460;2024-02-28T04:24:31;98664.53;;;8.61;70.57
48622;BME280;34421;48.944;9.460;2024-02-28T04:26:57;98668.41;;;8.59;70.50
48622;BME280;34421;48.944;9.460;2024-02-28T04:29:24;98655.63;;;8.69;70.21
48622;BME280;34421;48.944;9.460;2024-02-28T04:31:49;98651.19;;;8.76;69.71
48622;BME280;34421;48.944;9.460;2024-02-28T04:34:15;98659.19;;;8.83;69.76
48622;BME280;34421;48.944;9.460;2024-02-28T04:36:40;98658.59;;;8.87;70.58
48622;BME280;34421;48.944;9.460;2024-02-28T04:39:05;98657.41;;;8.90;70.10
48622;BME280;34421;48.944;9.460;2024-02-28T04:41:32;98664.34;;;8.91;70.66
48622;BME280;34421;48.944;9.460;2024-02-28T04:43:59;98657.59;;;8.88;70.22
48622;BME280;34421;48.944;9.460;2024-02-28T04:46:24;98663.09;;;8.87;70.45
48622;BME280;34421;48.944;9.460;2024-02-28T04:48:49;98657.97;;;8.85;70.74
48622;BME280;34421;48.944;9.460;2024-02-28T04:51:16;98663.28;;;8.85;70.59
48622;BME280;34421;48.944;9.460;2024-02-28T04:53:44;98668.81;;;8.84;70.35
48622;BME280;34421;48.944;9.460;2024-02-28T04:56:09;98666.16;;;8.84;70.32
48622;BME280;34421;48.944;9.460;2024-02-28T04:58:36;98666.56;;;8.87;70.40
48622;BME280;34421;48.944;9.460;2024-02-28T05:01:01;98665.53;;;8.88;69.99
48622;BME280;34421;48.944;9.460;2024-02-28T05:03:27;98669.88;;;8.89;70.56
48622;BME280;34421;48.944;9.460;2024-02-28T05:05:52;98668.84;;;8.90;70.06
48622;BME280;34421;48.944;9.460;2024-02-28T05:08:19;98670.47;;;8.92;70.31
48622;BME280;34421;48.944;9.460;2024-02-28T05:10:45;98670.47;;;8.92;69.76
48622;BME280;34421;48.944;9.460;2024-02-28T05:13:10;98665.97;;;8.92;70.21
48622;BME280;34421;48.944;9.460;2024-02-28T05:15:35;98676.97;;;8.89;70.62
48622;BME280;34421;48.944;9.460;2024-02-28T05:18:01;98675.75;;;8.85;70.34
48622;BME280;34421;48.944;9.460;2024-02-28T05:20:26;98673.91;;;8.85;70.97
48622;BME280;34421;48.944;9.460;2024-02-28T05:22:52;98669.63;;;8.84;70.20
48622;BME280;34421;48.944;9.460;2024-02-28T05:25:17;98674.94;;;8.84;69.87
48622;BME280;34421;48.944;9.460;2024-02-28T05:27:42;98681.25;;;8.83;70.31
48622;BME280;34421;48.944;9.460;2024-02-28T05:30:08;98677.38;;;8.86;70.36
48622;BME280;34421;48.944;9.460;2024-02-28T05:32:34;98679.84;;;8.87;70.13
48622;BME280;34421;48.944;9.460;2024-02-28T05:34:59;98676.16;;;8.88;70.42
48622;BME280;34421;48.944;9.460;2024-02-28T05:37:25;98679.03;;;8.87;71.13
48622;BME280;34421;48.944;9.460;2024-02-28T05:39:50;98678.41;;;8.85;71.48
48622;BME280;34421;48.944;9.460;2024-02-28T05:42:15;98676.94;;;8.82;70.53
48622;BME280;34421;48.944;9.460;2024-02-28T05:44:47;98685.31;;;8.79;70.60
48622;BME280;34421;48.944;9.460;2024-02-28T05:47:13;98687.53;;;8.76;70.47
48622;BME280;34421;48.944;9.460;2024-02-28T05:49:38;98686.06;;;8.73;70.77
48622;BME280;34421;48.944;9.460;2024-02-28T05:52:04;98696.06;;;8.71;70.21
48622;BME280;34421;48.944;9.460;2024-02-28T05:54:30;98700.75;;;8.69;70.85
48622;BME280;34421;48.944;9.460;2024-02-28T05:56:56;98703.78;;;8.66;70.58
48622;BME280;34421;48.944;9.460;2024-02-28T05:59:21;98708.25;;;8.65;69.93
48622;BME280;34421;48.944;9.460;2024-02-28T06:01:46;98710.31;;;8.63;69.93
48622;BME280;34421;48.944;9.460;2024-02-28T06:04:12;98718.44;;;8.62;69.81
48622;BME280;34421;48.944;9.460;2024-02-28T06:06:38;98720.50;;;8.60;70.09
48622;BME280;34421;48.944;9.460;2024-02-28T06:09:03;98714.34;;;8.59;69.92
48622;BME280;34421;48.944;9.460;2024-02-28T06:11:28;98728.25;;;8.61;69.25
48622;BME280;34421;48.944;9.460;2024-02-28T06:13:54;98732.34;;;8.64;69.53
48622;BME280;34421;48.944;9.460;2024-02-28T06:16:19;98737.47;;;8.65;69.55
48622;BME280;34421;48.944;9.460;2024-02-28T06:18:44;98738.09;;;8.67;69.42
48622;BME280;34421;48.944;9.460;2024-02-28T06:21:10;98742.22;;;8.70;69.48
48622;BME280;34421;48.944;9.460;2024-02-28T06:23:35;98735.88;;;8.71;69.40
48622;BME280;34421;48.944;9.460;2024-02-28T06:26:00;98741.19;;;8.71;69.57
48622;BME280;34421;48.944;9.460;2024-02-28T06:28:26;98742.63;;;8.74;69.68
48622;BME280;34421;48.944;9.460;2024-02-28T06:30:52;98749.59;;;8.75;69.77
48622;BME280;34421;48.944;9.460;2024-02-28T06:33:17;98751.41;;;8.74;69.25
48622;BME280;34421;48.944;9.460;2024-02-28T06:35:43;98763.09;;;8.80;69.15
48622;BME280;34421;48.944;9.460;2024-02-28T06:38:09;98768.03;;;8.83;68.93
48622;BME280;34421;48.944;9.460;2024-02-28T06:40:34;98768.50;;;8.86;69.92
48622;BME280;34421;48.944;9.460;2024-02-28T06:43:00;98771.72;;;8.82;69.54
48622;BME280;34421;48.944;9.460;2024-02-28T06:45:25;98770.09;;;8.81;68.75
48622;BME280;34421;48.944;9.460;2024-02-28T06:47:51;98776.00;;;8.83;69.28
48622;BME280;34421;48.944;9.460;2024-02-28T06:50:16;98772.56;;;8.89;69.31
48622;BME280;34421;48.944;9.460;2024-02-28T06:52:42;98783.28;;;8.96;69.11
48622;BME280;34421;48.944;9.460;2024-02-28T06:55:07;98774.28;;;8.97;69.11
48622;BME280;34421;48.944;9.460;2024-02-28T06:57:40;98778.19;;;9.01;69.58
48622;BME280;34421;48.944;9.460;2024-02-28T07:00:07;98783.13;;;9.04;69.68
48622;BME280;34421;48.944;9.460;2024-02-28T07:02:36;98775.16;;;9.04;68.81
48622;BME280;34421;48.944;9.460;2024-02-28T07:05:02;98782.50;;;9.02;69.08
48622;BME280;34421;48.944;9.460;2024-02-28T07:07:30;98780.03;;;9.00;69.58
48622;BME280;34421;48.944;9.460;2024-02-28T07:09:56;98780.47;;;9.04;69.51
48622;BME280;34421;48.944;9.460;2024-02-28T07:12:21;98781.53;;;9.09;68.77
48622;BME280;34421;48.944;9.460;2024-02-28T07:14:46;98794.88;;;9.16;68.47
48622;BME280;34421;48.944;9.460;2024-02-28T07:17:12;98800.19;;;9.16;68.79
48622;BME280;34421;48.944;9.460;2024-02-28T07:19:37;98805.50;;;9.16;67.77
48622;BME280;34421;48.944;9.460;2024-02-28T07:22:03;98801.19;;;9.15;67.15
48622;BME280;34421;48.944;9.460;2024-02-28T07:24:30;98815.28;;;9.16;67.88
48622;BME280;34421;48.944;9.460;2024-02-28T07:26:56;98818.78;;;9.16;67.52
48622;BME280;34421;48.944;9.460;2024-02-28T07:29:22;98820.41;;;9.17;67.80
48622;BME280;34421;48.944;9.460;2024-02-28T07:31:49;98821.25;;;9.18;67.66
48622;BME280;34421;48.944;9.460;2024-02-28T07:34:14;98820.00;;;9.13;66.92
48622;BME280;34421;48.944;9.460;2024-02-28T07:36:40;98832.00;;;9.09;67.12
48622;BME280;34421;48.944;9.460;2024-02-28T07:39:05;98836.69;;;9.07;66.67
48622;BME280;34421;48.944;9.460;2024-02-28T07:41:30;98841.00;;;9.08;67.80
48622;BME280;34421;48.944;9.460;2024-02-28T07:43:57;98844.47;;;9.09;67.98
48622;BME280;34421;48.944;9.460;2024-02-28T07:46:22;98839.78;;;9.11;67.41
48622;BME280;34421;48.944;9.460;2024-02-28T07:48:48;98845.53;;;9.15;67.44
48622;BME280;34421;48.944;9.460;2024-02-28T07:51:13;98846.34;;;9.15;67.05
48622;BME280;34421;48.944;9.460;2024-02-28T07:53:38;98847.38;;;9.14;67.17
48622;BME280;34421;48.944;9.460;2024-02-28T07:56:04;98858.19;;;9.12;67.55
48622;BME280;34421;48.944;9.460;2024-02-28T07:58:29;98864.31;;;9.13;66.73
48622;BME280;34421;48.944;9.460;2024-02-28T08:00:54;98862.50;;;9.13;67.75
48622;BME280;34421;48.944;9.460;2024-02-28T08:03:20;98870.91;;;9.17;67.28
48622;BME280;34421;48.944;9.460;2024-02-28T08:05:45;98865.97;;;9.14;67.00
48622;BME280;34421;48.944;9.460;2024-02-28T08:08:11;98868.81;;;9.12;67.81
48622;BME280;34421;48.944;9.460;2024-02-28T08:10:37;98878.19;;;9.08;68.25
48622;BME280;34421;48.944;9.460;2024-02-28T08:13:04;98880.63;;;9.10;68.32
48622;BME280;34421;48.944;9.460;2024-02-28T08:15:29;98878.34;;;9.07;68.15
48622;BME280;34421;48.944;9.460;2024-02-28T08:17:54;98879.38;;;9.06;67.97
48622;BME280;34421;48.944;9.460;2024-02-28T08:20:20;98879.59;;;9.04;67.60
48622;BME280;34421;48.944;9.460;2024-02-28T08:22:46;98882.63;;;9.01;68.19
48622;BME280;34421;48.944;9.460;2024-02-28T08:25:13;98885.28;;;9.01;68.37
48622;BME280;34421;48.944;9.460;2024-02-28T08:27:39;98882.25;;;9.04;67.73
48622;BME280;34421;48.944;9.460;2024-02-28T08:30:05;98885.50;;;9.06;68.36
48622;BME280;34421;48.944;9.460;2024-02-28T08:32:31;98884.69;;;9.06;67.78
48622;BME280;34421;48.944;9.460;2024-02-28T08:34:57;98885.06;;;9.03;68.48
48622;BME280;34421;48.944;9.460;2024-02-28T08:37:23;98888.16;;;9.06;67.87
48622;BME280;34421;48.944;9.460;2024-02-28T08:39:48;98892.09;;;9.10;68.10
48622;BME280;34421;48.944;9.460;2024-02-28T08:42:14;98892.91;;;9.11;68.01
48622;BME280;34421;48.944;9.460;2024-02-28T08:44:39;98892.47;;;9.07;68.37
48622;BME280;34421;48.944;9.460;2024-02-28T08:47:05;98897.31;;;9.04;67.62
48622;BME280;34421;48.944;9.460;2024-02-28T08:49:33;98892.66;;;9.06;67.46
48622;BME280;34421;48.944;9.460;2024-02-28T08:51:58;98893.09;;;9.09;67.63
48622;BME280;34421;48.944;9.460;2024-02-28T08:54:23;98894.28;;;9.07;67.87
48622;BME280;34421;48.944;9.460;2024-02-28T08:56:48;98891.53;;;8.94;68.00
48622;BME280;34421;48.944;9.460;2024-02-28T08:59:14;98899.28;;;8.74;68.42
48622;BME280;34421;48.944;9.460;2024-02-28T09:01:39;98896.03;;;8.57;68.14
48622;BME280;34421;48.944;9.460;2024-02-28T09:04:06;98892.09;;;8.53;68.69
48622;BME280;34421;48.944;9.460;2024-02-28T09:06:31;98897.69;;;8.58;69.26
48622;BME280;34421;48.944;9.460;2024-02-28T09:08:57;98892.53;;;8.56;68.84
48622;BME280;34421;48.944;9.460;2024-02-28T09:11:22;98897.56;;;8.66;69.47
48622;BME280;34421;48.944;9.460;2024-02-28T09:13:47;98900.78;;;8.61;68.95
48622;BME280;34421;48.944;9.460;2024-02-28T09:16:13;98905.53;;;8.66;69.22
48622;BME280;34421;48.944;9.460;2024-02-28T09:18:38;98905.53;;;8.66;68.31
48622;BME280;34421;48.944;9.460;2024-02-28T09:21:03;98910.59;;;8.82;68.96
48622;BME280;34421;48.944;9.460;2024-02-28T09:23:29;98901.38;;;8.78;68.14
48622;BME280;34421;48.944;9.460;2024-02-28T09:25:55;98906.19;;;8.89;67.79
48622;BME280;34421;48.944;9.460;2024-02-28T09:28:21;98901.97;;;9.17;67.78
48622;BME280;34421;48.944;9.460;2024-02-28T09:30:46;98910.69;;;9.32;67.31
48622;BME280;34421;48.944;9.460;2024-02-28T09:33:12;98906.34;;;9.31;67.05
48622;BME280;34421;48.944;9.460;2024-02-28T09:35:38;98903.53;;;9.32;66.80
48622;BME280;34421;48.944;9.460;2024-02-28T09:38:03;98911.41;;;9.47;66.47
48622;BME280;34421;48.944;9.460;2024-02-28T09:40:30;98906.47;;;9.44;67.14
48622;BME280;34421;48.944;9.460;2024-02-28T09:43:01;98902.28;;;9.56;66.82
48622;BME280;34421;48.944;9.460;2024-02-28T09:45:27;98904.66;;;9.73;66.35
48622;BME280;34421;48.944;9.460;2024-02-28T09:47:56;98894.75;;;9.95;65.47
48622;BME280;34421;48.944;9.460;2024-02-28T09:50:21;98902.63;;;10.10;65.58
48622;BME280;34421;48.944;9.460;2024-02-28T09:52:47;98912.13;;;10.25;64.34
48622;BME280;34421;48.944;9.460;2024-02-28T09:55:12;98904.53;;;10.22;64.45
48622;BME280;34421;48.944;9.460;2024-02-28T09:57:38;98904.00;;;10.34;64.32
48622;BME280;34421;48.944;9.460;2024-02-28T10:00:05;98910.63;;;10.51;63.88
48622;BME280;34421;48.944;9.460;2024-02-28T10:02:32;98903.66;;;10.50;63.58
48622;BME280;34421;48.944;9.460;2024-02-28T10:04:59;98913.94;;;10.60;62.96
48622;BME280;34421;48.944;9.460;2024-02-28T10:07:25;98909.50;;;10.80;62.47
48622;BME280;34421;48.944;9.460;2024-02-28T10:09:51;98909.94;;;10.97;62.30
48622;BME280;34421;48.944;9.460;2024-02-28T10:12:16;98913.22;;;10.86;62.14
48622;BME280;34421;48.944;9.460;2024-02-28T10:14:41;98910.88;;;10.69;62.83
48622;BME280;34421;48.944;9.460;2024-02-28T10:17:06;98915.00;;;10.79;62.09
48622;BME280;34421;48.944;9.460;2024-02-28T10:19:33;98912.75;;;10.76;63.73
48622;BME280;34421;48.944;9.460;2024-02-28T10:21:58;98921.34;;;10.71;62.63
48622;BME280;34421;48.944;9.460;2024-02-28T10:24:24;98928.34;;;10.79;62.12
48622;BME280;34421;48.944;9.460;2024-02-28T10:26:49;98926.06;;;10.76;62.04
48622;BME280;34421;48.944;9.460;2024-02-28T10:29:23;98936.88;;;10.67;62.00
48622;BME280;34421;48.944;9.460;2024-02-28T10:31:58;98941.41;;;10.73;62.35
48622;BME280;34421;48.944;9.460;2024-02-28T10:34:24;98927.13;;;10.81;60.93
48622;BME280;34421;48.944;9.460;2024-02-28T10:36:49;98943.91;;;10.82;61.22
48622;BME280;34421;48.944;9.460;2024-02-28T10:39:15;98950.59;;;10.64;61.57
48622;BME280;34421;48.944;9.460;2024-02-28T10:41:41;98954.84;;;10.52;60.44
48622;BME280;34421;48.944;9.460;2024-02-28T10:44:08;98952.84;;;10.54;60.85
48622;BME280;34421;48.944;9.460;2024-02-28T10:46:37;98949.78;;;10.64;60.26
48622;BME280;34421;48.944;9.460;2024-02-28T10:49:06;98960.53;;;10.90;59.94
48622;BME280;34421;48.944;9.460;2024-02-28T10:51:35;98958.56;;;11.12;59.90
48622;BME280;34421;48.944;9.460;2024-02-28T10:54:09;98967.97;;;11.08;59.38
48622;BME280;34421;48.944;9.460;2024-02-28T10:56:37;98966.56;;;11.12;59.13
48622;BME280;34421;48.944;9.460;2024-02-28T10:59:04;98969.03;;;11.27;59.58
48622;BME280;34421;48.944;9.460;2024-02-28T11:01:30;98962.09;;;11.39;59.23
48622;BME280;34421;48.944;9.460;2024-02-28T11:03:57;98964.94;;;11.45;58.83
48622;BME280;34421;48.944;9.460;2024-02-28T11:06:22;98965.75;;;11.38;58.52
48622;BME280;34421;48.944;9.460;2024-02-28T11:08:48;98957.34;;;11.41;59.78
48622;BME280;34421;48.944;9.460;2024-02-28T11:11:18;98964.56;;;11.54;59.30
48622;BME280;34421;48.944;9.460;2024-02-28T11:13:52;98966.19;;;11.69;59.58
48622;BME280;34421;48.944;9.460;2024-02-28T11:16:26;98962.91;;;11.60;59.57
48622;BME280;34421;48.944;9.460;2024-02-28T11:18:51;98973.59;;;11.67;59.61
48622;BME280;34421;48.944;9.460;2024-02-28T11:21:17;98962.09;;;11.79;59.54
48622;BME280;34421;48.944;9.460;2024-02-28T11:23:46;98965.59;;;11.86;58.42
48622;BME280;34421;48.944;9.460;2024-02-28T11:26:12;98978.31;;;11.78;58.60
48622;BME280;34421;48.944;9.460;2024-02-28T11:28:38;98975.44;;;11.73;58.29
48622;BME280;34421;48.944;9.460;2024-02-28T11:31:03;98976.25;;;11.73;58.04
48622;BME280;34421;48.944;9.460;2024-02-28T11:33:29;98976.66;;;11.57;59.31
48622;BME280;34421;48.944;9.460;2024-02-28T11:35:57;98982.81;;;11.64;57.64
48622;BME280;34421;48.944;9.460;2024-02-28T11:38:26;98980.97;;;11.64;58.03
48622;BME280;34421;48.944;9.460;2024-02-28T11:40:52;98982.81;;;11.64;57.97
48622;BME280;34421;48.944;9.460;2024-02-28T11:43:17;98979.53;;;11.49;58.72
48622;BME280;34421;48.944;9.460;2024-02-28T11:45:43;98972.72;;;11.33;59.81
48622;BME280;34421;48.944;9.460;2024-02-28T11:48:09;98973.97;;;11.37;59.13
48622;BME280;34421;48.944;9.460;2024-02-28T11:50:37;98967.84;;;11.36;58.37
48622;BME280;34421;48.944;9.460;2024-02-28T11:53:02;98971.94;;;11.46;58.58
48622;BME280;34421;48.944;9.460;2024-02-28T11:55:30;98971.31;;;11.44;59.10
48622;BME280;34421;48.944;9.460;2024-02-28T11:57:55;98972.72;;;11.33;59.81
48622;BME280;34421;48.944;9.460;2024-02-28T12:00:20;98967.44;;;11.39;60.12
48622;BME280;34421;48.944;9.460;2024-02-28T12:02:46;98971.75;;;11.60;58.39
48622;BME280;34421;48.944;9.460;2024-02-28T12:05:11;98970.53;;;11.70;58.67
48622;BME280;34421;48.944;9.460;2024-02-28T12:07:37;98964.16;;;11.64;58.26
48622;BME280;34421;48.944;9.460;2024-02-28T12:10:02;98961.28;;;11.59;58.16
48622;BME280;34421;48.944;9.460;2024-02-28T12:12:28;98972.78;;;11.66;58.55
48622;BME280;34421;48.944;9.460;2024-02-28T12:14:58;98962.94;;;11.67;58.67
48622;BME280;34421;48.944;9.460;2024-02-28T12:17:24;98966.19;;;11.69;57.42
48622;BME280;34421;48.944;9.460;2024-02-28T12:19:50;98952.47;;;11.78;57.44
48622;BME280;34421;48.944;9.460;2024-02-28T12:22:16;98964.59;;;11.88;56.33
48622;BME280;34421;48.944;9.460;2024-02-28T12:24:41;98958.63;;;11.85;56.91
48622;BME280;34421;48.944;9.460;2024-02-28T12:27:07;98953.09;;;11.87;56.47
48622;BME280;34421;48.944;9.460;2024-02-28T12:29:32;98959.84;;;11.90;56.55
48622;BME280;34421;48.944;9.460;2024-02-28T12:31:57;98952.28;;;11.93;56.71
48622;BME280;34421;48.944;9.460;2024-02-28T12:34:23;98950.41;;;12.00;56.33
48622;BME280;34421;48.944;9.460;2024-02-28T12:36:48;98947.31;;;12.03;55.61
48622;BME280;34421;48.944;9.460;2024-02-28T12:39:13;98943.84;;;12.03;56.02
48622;BME280;34421;48.944;9.460;2024-02-28T12:41:39;98950.59;;;11.92;56.43
48622;BME280;34421;48.944;9.460;2024-02-28T12:44:07;98952.06;;;11.95;56.63
48622;BME280;34421;48.944;9.460;2024-02-28T12:46:34;98944.44;;;11.98;56.43
48622;BME280;34421;48.944;9.460;2024-02-28T12:48:59;98937.06;;;12.00;56.87
48622;BME280;34421;48.944;9.460;2024-02-28T12:51:41;98947.94;;;12.05;57.16
48622;BME280;34421;48.944;9.460;2024-02-28T12:54:07;98946.09;;;11.99;56.25
48622;BME280;34421;48.944;9.460;2024-02-28T12:56:34;98955.75;;;11.94;56.23
48622;BME280;34421;48.944;9.460;2024-02-28T12:59:00;98951.44;;;11.86;57.42
48622;BME280;34421;48.944;9.460;2024-02-28T13:01:26;98951.44;;;11.86;57.35